Time;durP1;ratioP1;P1;durP2;ratioP2;P2;SDS_P1;SDS_P2;PMS_P1;PMS_P2;Temp;Humidity;BMP_temperature;BMP_pressure;BME280_temperature;BME280_humidity;BME280_pressure;Samples;Min_cycle;Max_cycle;Signal;HPM_P1;HPM_P2
2021/03/04 00:00:45;;;;;;;195.47;54.23;;;6.10;99.90;;;;;;4817450;29;20201;-61
2021/03/04 00:03:14;;;;;;;187.43;51.70;;;6.10;99.90;;;;;;4819574;29;20208;-61
2021/03/04 00:05:41;;;;;;;154.73;51.30;;;6.10;99.90;;;;;;4814446;29;20300;-61
2021/03/04 00:08:09;;;;;;;225.00;54.60;;;6.10;99.90;;;;;;4812922;29;20200;-61
2021/03/04 00:10:36;;;;;;;175.80;51.27;;;6.10;99.90;;;;;;4819499;29;20728;-61
2021/03/04 00:13:04;;;;;;;220.57;55.23;;;6.00;99.90;;;;;;4818459;29;20641;-61
2021/03/04 00:15:33;;;;;;;202.00;54.23;;;6.00;99.90;;;;;;4819392;29;20674;-61
2021/03/04 00:18:01;;;;;;;198.27;54.80;;;6.00;99.90;;;;;;4817965;29;20244;-61
2021/03/04 00:20:32;;;;;;;168.63;53.47;;;6.00;99.90;;;;;;4817241;29;20210;-61
2021/03/04 00:22:59;;;;;;;179.60;54.37;;;6.00;99.90;;;;;;4816855;29;20193;-61
2021/03/04 00:25:29;;;;;;;179.27;53.47;;;6.00;99.90;;;;;;4832826;29;20209;-61
2021/03/04 00:27:57;;;;;;;179.77;55.73;;;6.00;99.90;;;;;;4819650;29;20221;-61
2021/03/04 00:30:25;;;;;;;181.10;55.73;;;6.00;99.90;;;;;;4816829;29;20234;-61
2021/03/04 00:32:53;;;;;;;174.27;55.87;;;6.00;99.90;;;;;;4819189;29;20204;-61
2021/03/04 00:35:21;;;;;;;183.77;55.03;;;6.00;99.90;;;;;;4817071;29;20681;-61
2021/03/04 00:37:49;;;;;;;189.93;52.93;;;6.00;99.90;;;;;;4816340;29;20715;-61
2021/03/04 00:40:19;;;;;;;150.87;51.90;;;6.00;99.90;;;;;;4815191;29;20208;-61
2021/03/04 00:42:47;;;;;;;142.20;50.53;;;5.90;99.90;;;;;;4819417;29;20723;-61
2021/03/04 00:45:16;;;;;;;135.57;49.50;;;5.90;99.90;;;;;;4816797;29;20300;-61
2021/03/04 00:48:05;;;;;;;125.97;48.17;;;5.90;99.90;;;;;;4817674;29;20288;-61
2021/03/04 00:50:32;;;;;;;148.03;49.60;;;6.00;99.90;;;;;;4818165;29;20265;-61
2021/03/04 00:53:02;;;;;;;160.73;52.40;;;6.00;99.90;;;;;;4816662;29;20193;-61
2021/03/04 00:55:30;;;;;;;170.50;53.20;;;6.00;99.90;;;;;;4816544;29;20349;-61
2021/03/04 00:58:00;;;;;;;151.97;51.47;;;6.00;99.90;;;;;;4821398;29;20725;-61
2021/03/04 01:00:28;;;;;;;217.90;55.33;;;6.00;99.90;;;;;;4820682;29;20303;-61
2021/03/04 01:02:55;;;;;;;248.30;55.83;;;6.00;99.90;;;;;;4819781;29;20221;-62
2021/03/04 01:05:23;;;;;;;187.77;56.33;;;5.90;99.90;;;;;;4821310;29;20297;-61
2021/03/04 01:07:51;;;;;;;223.03;55.67;;;5.90;99.90;;;;;;4820998;29;20288;-61
2021/03/04 01:10:22;;;;;;;221.83;55.13;;;5.90;99.90;;;;;;4818605;29;20577;-61
2021/03/04 01:12:50;;;;;;;244.37;56.77;;;5.90;99.90;;;;;;4820065;29;20212;-61
2021/03/04 01:15:21;;;;;;;244.03;56.53;;;5.90;99.90;;;;;;4819915;29;20254;-61
2021/03/04 01:17:48;;;;;;;180.53;55.27;;;5.90;99.90;;;;;;4820752;29;20230;-61
2021/03/04 01:20:17;;;;;;;215.97;58.70;;;5.90;99.90;;;;;;4822682;29;20203;-61
2021/03/04 01:22:47;;;;;;;207.60;59.10;;;5.90;99.90;;;;;;4818407;29;20211;-61
2021/03/04 01:25:17;;;;;;;208.00;57.67;;;5.90;99.90;;;;;;4819931;29;20243;-61
2021/03/04 01:27:47;;;;;;;202.30;60.47;;;5.80;99.90;;;;;;4822794;29;20207;-61
2021/03/04 01:30:15;;;;;;;243.03;60.17;;;5.90;99.90;;;;;;4829189;29;20205;-61
2021/03/04 01:32:45;;;;;;;229.00;61.50;;;5.80;99.90;;;;;;4820670;29;20270;-61
2021/03/04 01:35:13;;;;;;;275.77;61.13;;;5.70;99.90;;;;;;4822021;29;20228;-61
2021/03/04 01:37:41;;;;;;;213.97;58.63;;;5.70;99.90;;;;;;4819683;29;20213;-61
2021/03/04 01:40:10;;;;;;;330.80;62.53;;;5.80;99.90;;;;;;4818609;29;20283;-61
2021/03/04 01:42:37;;;;;;;193.97;59.57;;;5.80;99.90;;;;;;4820136;29;20927;-61
2021/03/04 01:45:07;;;;;;;195.37;58.40;;;5.80;99.90;;;;;;4818110;29;20288;-61
2021/03/04 01:47:35;;;;;;;211.77;59.77;;;5.80;99.90;;;;;;4833328;29;20334;-61
2021/03/04 01:50:03;;;;;;;197.33;57.90;;;5.80;99.90;;;;;;4820220;29;20582;-61
2021/03/04 01:52:31;;;;;;;208.93;61.23;;;5.80;99.90;;;;;;4817413;29;20332;-61
2021/03/04 01:54:59;;;;;;;216.47;59.47;;;5.80;99.90;;;;;;4818856;29;20573;-62
2021/03/04 01:57:29;;;;;;;211.60;61.10;;;5.80;99.90;;;;;;4820362;29;20315;-61
2021/03/04 01:59:57;;;;;;;198.67;58.33;;;5.70;99.90;;;;;;4821433;29;20207;-61
2021/03/04 02:02:26;;;;;;;173.93;56.83;;;5.80;99.90;;;;;;4816789;29;20736;-62
2021/03/04 02:04:54;;;;;;;180.67;55.40;;;5.80;99.90;;;;;;4816574;29;20213;-61
2021/03/04 02:07:36;;;;;;;186.07;57.77;;;5.70;99.90;;;;;;4826633;29;20258;-61
2021/03/04 02:10:07;;;;;;;161.77;55.83;;;5.70;99.90;;;;;;4816851;29;20291;-61
2021/03/04 02:12:43;;;;;;;175.73;57.67;;;5.70;99.90;;;;;;4818878;29;20291;-61
2021/03/04 02:15:17;;;;;;;188.57;56.80;;;5.60;99.90;;;;;;4817951;29;20287;-61
2021/03/04 02:17:49;;;;;;;177.97;56.77;;;5.60;99.90;;;;;;4817935;29;20312;-61
2021/03/04 02:20:29;;;;;;;182.23;59.30;;;5.60;99.90;;;;;;4816333;29;20209;-61
2021/03/04 02:23:08;;;;;;;176.27;57.10;;;5.60;99.90;;;;;;4815123;29;20196;-61
2021/03/04 02:25:50;;;;;;;172.30;57.70;;;5.60;99.90;;;;;;4816962;29;20205;-61
2021/03/04 02:28:20;;;;;;;180.07;57.03;;;5.60;99.90;;;;;;4817209;29;20257;-62
2021/03/04 02:30:50;;;;;;;162.60;55.07;;;5.60;99.90;;;;;;4812886;29;20201;-61
2021/03/04 02:33:20;;;;;;;153.13;53.33;;;5.60;99.90;;;;;;4817617;29;20748;-61
2021/03/04 02:35:50;;;;;;;155.53;54.10;;;5.70;99.90;;;;;;4821233;29;20252;-61
2021/03/04 02:38:19;;;;;;;160.17;54.10;;;5.60;99.90;;;;;;4819010;29;20213;-61
2021/03/04 02:40:50;;;;;;;147.57;53.63;;;5.60;99.90;;;;;;4818790;29;20289;-61
2021/03/04 02:43:20;;;;;;;147.40;51.63;;;5.60;99.90;;;;;;4818263;29;20267;-61
2021/03/04 02:45:48;;;;;;;148.90;53.33;;;5.60;99.90;;;;;;4816409;29;20233;-61
2021/03/04 02:48:20;;;;;;;152.20;51.20;;;5.60;99.90;;;;;;4815399;29;20193;-61
2021/03/04 02:50:51;;;;;;;147.17;50.20;;;5.60;99.90;;;;;;4819862;29;20289;-61
2021/03/04 02:53:19;;;;;;;133.73;47.63;;;5.60;99.90;;;;;;4814375;29;20681;-61
2021/03/04 02:55:47;;;;;;;132.87;46.27;;;5.60;99.90;;;;;;4818045;29;20201;-61
2021/03/04 02:58:17;;;;;;;134.50;47.67;;;5.60;99.90;;;;;;4819485;29;20685;-61
2021/03/04 03:00:47;;;;;;;117.17;43.67;;;5.60;99.90;;;;;;4819268;29;20197;-61
2021/03/04 03:03:18;;;;;;;122.20;43.67;;;5.60;99.90;;;;;;4818648;29;20200;-61
2021/03/04 03:05:46;;;;;;;121.80;43.93;;;5.50;99.90;;;;;;4816616;29;20263;-61
2021/03/04 03:08:19;;;;;;;133.47;45.40;;;5.50;99.90;;;;;;4820878;29;20200;-61
2021/03/04 03:10:49;;;;;;;134.70;45.17;;;5.50;99.90;;;;;;4816208;29;20254;-61
2021/03/04 03:13:18;;;;;;;139.93;45.57;;;5.50;99.90;;;;;;4816895;29;20209;-61
2021/03/04 03:15:47;;;;;;;135.30;45.17;;;5.50;99.90;;;;;;4817578;29;20232;-61
2021/03/04 03:18:15;;;;;;;139.63;43.97;;;5.50;99.90;;;;;;4819809;29;20213;-61
2021/03/04 03:20:42;;;;;;;144.70;46.87;;;5.50;99.90;;;;;;4818066;29;20261;-61
2021/03/04 03:23:09;;;;;;;151.40;47.03;;;5.50;99.90;;;;;;4817560;29;20196;-61
2021/03/04 03:25:37;;;;;;;158.73;47.67;;;5.50;99.90;;;;;;4816890;29;20236;-61
2021/03/04 03:28:05;;;;;;;168.13;48.17;;;5.50;99.90;;;;;;4819301;29;20288;-61
2021/03/04 03:30:33;;;;;;;163.03;47.30;;;5.50;99.90;;;;;;4819776;29;20300;-61
2021/03/04 03:33:03;;;;;;;164.87;46.67;;;5.50;99.90;;;;;;4817145;29;20296;-61
2021/03/04 03:35:32;;;;;;;159.33;47.20;;;5.50;99.90;;;;;;4819537;29;20205;-61
2021/03/04 03:38:02;;;;;;;168.50;47.33;;;5.60;99.90;;;;;;4820224;29;20418;-61
2021/03/04 03:40:32;;;;;;;160.67;45.97;;;5.60;99.90;;;;;;4815475;29;20196;-61
2021/03/04 03:43:05;;;;;;;171.50;47.80;;;5.60;99.90;;;;;;4815701;29;20196;-61
2021/03/04 03:45:36;;;;;;;168.50;46.57;;;5.60;99.90;;;;;;4816560;29;20653;-61
2021/03/04 03:48:09;;;;;;;169.03;46.50;;;5.50;99.90;;;;;;4818546;29;20296;-61
2021/03/04 03:50:37;;;;;;;181.30;46.97;;;5.50;99.90;;;;;;4819148;29;20201;-61
2021/03/04 03:53:05;;;;;;;180.43;47.93;;;5.50;99.90;;;;;;4818528;29;20224;-61
2021/03/04 03:55:33;;;;;;;195.23;49.33;;;5.50;99.90;;;;;;4811959;29;20204;-61
2021/03/04 03:58:02;;;;;;;174.43;47.03;;;5.50;99.90;;;;;;4820648;29;20303;-61
2021/03/04 04:00:30;;;;;;;175.53;47.67;;;5.50;99.90;;;;;;4818224;29;20197;-61
2021/03/04 04:03:00;;;;;;;193.23;47.57;;;5.50;99.90;;;;;;4819716;29;20197;-61
2021/03/04 04:05:29;;;;;;;178.57;47.67;;;5.50;99.90;;;;;;4818793;29;20215;-61
2021/03/04 04:07:57;;;;;;;174.47;46.10;;;5.50;99.90;;;;;;4818954;29;20653;-61
2021/03/04 04:10:25;;;;;;;173.70;46.07;;;5.50;99.90;;;;;;4815838;29;20265;-61
2021/03/04 04:12:53;;;;;;;165.50;45.30;;;5.50;99.90;;;;;;4821057;29;20204;-61
2021/03/04 04:15:21;;;;;;;152.97;43.93;;;5.40;99.90;;;;;;4815962;29;20277;-61
2021/03/04 04:17:49;;;;;;;159.10;43.47;;;5.40;99.90;;;;;;4818015;29;20703;-61
2021/03/04 04:20:18;;;;;;;161.37;44.53;;;5.50;99.90;;;;;;4816173;29;20224;-61
2021/03/04 04:22:46;;;;;;;158.77;43.87;;;5.50;99.90;;;;;;4816488;29;20201;-61
2021/03/04 04:25:14;;;;;;;155.27;44.90;;;5.50;99.90;;;;;;4816155;29;20213;-61
2021/03/04 04:27:45;;;;;;;147.03;43.20;;;5.50;99.90;;;;;;4822713;29;20192;-61
2021/03/04 04:30:13;;;;;;;145.53;41.03;;;5.50;99.90;;;;;;4821298;29;20291;-61
2021/03/04 04:32:40;;;;;;;147.03;43.00;;;5.50;99.90;;;;;;4822782;29;20211;-61
2021/03/04 04:35:08;;;;;;;162.03;43.67;;;5.50;99.90;;;;;;4817902;29;20210;-61
2021/03/04 04:37:36;;;;;;;140.13;43.07;;;5.50;99.90;;;;;;4818319;29;20238;-61
2021/03/04 04:40:05;;;;;;;156.63;44.30;;;5.50;99.90;;;;;;4822243;29;20288;-61
2021/03/04 04:42:33;;;;;;;156.20;43.70;;;5.50;99.90;;;;;;4823090;29;20744;-61
2021/03/04 04:45:00;;;;;;;154.37;44.37;;;5.50;99.90;;;;;;4821579;29;20296;-61
2021/03/04 04:47:28;;;;;;;150.40;45.00;;;5.50;99.90;;;;;;4818887;29;21073;-61
2021/03/04 04:49:55;;;;;;;162.27;44.20;;;5.50;99.90;;;;;;4822312;29;20196;-61
2021/03/04 04:52:22;;;;;;;166.70;44.43;;;5.50;99.90;;;;;;4821545;29;20649;-61
2021/03/04 04:54:50;;;;;;;159.20;44.90;;;5.50;99.90;;;;;;4818464;29;20258;-61
2021/03/04 04:57:18;;;;;;;147.77;42.50;;;5.50;99.90;;;;;;4819571;29;20711;-61
2021/03/04 04:59:46;;;;;;;166.70;44.83;;;5.50;99.90;;;;;;4823053;29;20295;-61
2021/03/04 05:02:13;;;;;;;188.17;46.70;;;5.50;99.90;;;;;;4820672;29;20257;-61
2021/03/04 05:04:40;;;;;;;181.77;46.97;;;5.50;99.90;;;;;;4822604;29;20749;-61
2021/03/04 05:07:08;;;;;;;179.67;46.17;;;5.50;99.90;;;;;;4819838;29;20203;-61
2021/03/04 05:09:35;;;;;;;203.63;48.23;;;5.50;99.90;;;;;;4821634;29;20687;-61
2021/03/04 05:12:03;;;;;;;187.87;47.23;;;5.50;99.90;;;;;;4821687;29;20287;-61
2021/03/04 05:14:31;;;;;;;188.83;46.87;;;5.50;99.90;;;;;;4813360;29;20220;-61
2021/03/04 05:16:59;;;;;;;198.33;50.37;;;5.50;99.90;;;;;;4818092;29;20201;-61
2021/03/04 05:19:29;;;;;;;190.47;47.27;;;5.50;99.90;;;;;;4823458;29;20204;-61
2021/03/04 05:21:57;;;;;;;183.73;47.83;;;5.40;99.90;;;;;;4822442;29;20224;-61
2021/03/04 05:24:24;;;;;;;194.73;47.20;;;5.40;99.90;;;;;;4818990;29;20774;-61
2021/03/04 05:26:56;;;;;;;195.23;48.93;;;5.40;99.90;;;;;;4819125;29;20693;-61
2021/03/04 05:29:23;;;;;;;189.73;46.37;;;5.40;99.90;;;;;;4821176;29;20258;-61
2021/03/04 05:31:51;;;;;;;192.30;46.17;;;5.40;99.90;;;;;;4821866;29;20208;-61
2021/03/04 05:34:19;;;;;;;193.27;47.20;;;5.40;99.90;;;;;;4820662;29;20276;-61
2021/03/04 05:36:46;;;;;;;214.57;50.07;;;5.40;99.90;;;;;;4819803;29;20230;-61
2021/03/04 05:39:15;;;;;;;205.87;48.17;;;5.30;99.90;;;;;;4818813;29;20224;-61
2021/03/04 05:41:43;;;;;;;224.97;50.77;;;5.40;99.90;;;;;;4816244;29;20310;-61
2021/03/04 05:44:11;;;;;;;218.93;50.77;;;5.40;99.90;;;;;;4816441;29;20209;-61
2021/03/04 05:46:40;;;;;;;235.27;50.17;;;5.40;99.90;;;;;;4828337;29;20262;-61
2021/03/04 05:49:12;;;;;;;200.73;47.70;;;5.40;99.90;;;;;;4818185;29;20261;-61
2021/03/04 05:51:57;;;;;;;210.67;49.77;;;5.40;99.90;;;;;;4817633;29;20228;-61
2021/03/04 05:54:27;;;;;;;218.87;49.23;;;5.40;99.90;;;;;;4820458;29;20201;-61
2021/03/04 05:56:57;;;;;;;225.57;51.40;;;5.40;99.90;;;;;;4817399;29;20200;-61
2021/03/04 05:59:26;;;;;;;213.70;48.83;;;5.40;99.90;;;;;;4819064;29;20205;-61
2021/03/04 06:01:54;;;;;;;219.50;49.57;;;5.40;99.90;;;;;;4821527;29;20291;-61
2021/03/04 06:04:23;;;;;;;242.50;50.43;;;5.40;99.90;;;;;;4819163;29;20205;-61
2021/03/04 06:06:50;;;;;;;240.80;50.77;;;5.40;99.90;;;;;;4818288;29;20197;-61
2021/03/04 06:09:18;;;;;;;250.80;53.73;;;5.40;99.90;;;;;;4818838;29;20305;-61
2021/03/04 06:11:46;;;;;;;231.87;51.30;;;5.50;99.90;;;;;;4817033;29;20297;-61
2021/03/04 06:14:14;;;;;;;228.47;50.80;;;5.50;99.90;;;;;;4827799;29;20299;-61
2021/03/04 06:16:41;;;;;;;214.33;49.23;;;5.40;99.90;;;;;;4818095;29;20233;-61
2021/03/04 06:19:18;;;;;;;227.57;48.97;;;5.40;99.90;;;;;;4813093;29;20236;-61
2021/03/04 06:21:57;;;;;;;220.27;48.60;;;5.50;99.90;;;;;;4821896;29;20221;-61
2021/03/04 06:24:26;;;;;;;216.60;49.73;;;5.50;99.90;;;;;;4819209;29;20261;-61
2021/03/04 06:26:54;;;;;;;214.93;49.27;;;5.50;99.90;;;;;;4817314;29;20563;-61
2021/03/04 06:29:24;;;;;;;234.10;50.23;;;5.50;99.90;;;;;;4823511;29;20606;-61
2021/03/04 06:32:01;;;;;;;242.63;49.77;;;5.40;99.90;;;;;;4816301;29;20725;-61
2021/03/04 06:34:28;;;;;;;251.50;52.20;;;5.50;99.90;;;;;;4818674;29;20302;-61
2021/03/04 06:37:01;;;;;;;230.47;48.70;;;5.50;99.90;;;;;;4820565;29;20200;-61
2021/03/04 06:39:41;;;;;;;259.63;51.13;;;5.50;99.90;;;;;;4813192;29;20201;-61
2021/03/04 06:42:10;;;;;;;248.57;51.80;;;5.50;99.90;;;;;;4811379;29;20661;-61
2021/03/04 06:44:45;;;;;;;255.90;51.30;;;5.50;99.90;;;;;;4816308;29;20673;-61
2021/03/04 06:47:20;;;;;;;295.07;54.60;;;5.50;99.90;;;;;;4818496;29;20212;-61
2021/03/04 06:49:48;;;;;;;267.03;53.03;;;5.50;99.90;;;;;;4816632;29;20564;-61
2021/03/04 06:52:31;;;;;;;254.60;51.73;;;5.50;99.90;;;;;;4818958;29;20242;-61
2021/03/04 06:55:07;;;;;;;285.87;57.93;;;5.50;99.90;;;;;;4816389;29;20775;-61
2021/03/04 06:57:35;;;;;;;269.73;53.03;;;5.50;99.90;;;;;;4819911;29;20320;-61
2021/03/04 07:00:04;;;;;;;255.60;51.40;;;5.50;99.90;;;;;;4813528;29;20704;-61
2021/03/04 07:02:31;;;;;;;254.33;50.33;;;5.50;99.90;;;;;;4818613;29;20319;-61
2021/03/04 07:05:01;;;;;;;231.17;50.87;;;5.50;99.90;;;;;;4813818;29;20284;-61
2021/03/04 07:07:30;;;;;;;244.40;49.17;;;5.50;99.90;;;;;;4820638;29;20236;-61
2021/03/04 07:09:59;;;;;;;246.23;49.63;;;5.50;99.90;;;;;;4814194;29;20282;-62
2021/03/04 07:12:27;;;;;;;233.90;48.07;;;5.50;99.90;;;;;;4818012;29;20205;-61
2021/03/04 07:14:54;;;;;;;234.53;48.47;;;5.50;99.90;;;;;;4818679;29;20253;-61
2021/03/04 07:17:26;;;;;;;213.83;45.87;;;5.50;99.90;;;;;;4820371;29;20555;-61
2021/03/04 07:19:57;;;;;;;211.37;44.73;;;5.50;99.90;;;;;;4818872;29;20747;-61
2021/03/04 07:22:27;;;;;;;198.17;44.57;;;5.50;99.90;;;;;;4819643;29;20917;-61
2021/03/04 07:24:59;;;;;;;191.80;42.67;;;5.50;99.90;;;;;;4819486;29;20233;-61
2021/03/04 07:27:27;;;;;;;196.87;47.53;;;5.50;99.90;;;;;;4817652;29;20205;-60
2021/03/04 07:29:54;;;;;;;176.23;42.27;;;5.60;99.90;;;;;;4820794;29;20192;-60
2021/03/04 07:32:22;;;;;;;151.20;35.63;;;5.60;99.90;;;;;;4812698;29;20270;-60
2021/03/04 07:34:50;;;;;;;142.50;35.33;;;5.60;99.90;;;;;;4814950;29;20765;-61
2021/03/04 07:37:18;;;;;;;159.97;37.27;;;5.60;99.90;;;;;;4818658;29;20285;-61
2021/03/04 07:39:48;;;;;;;156.03;38.13;;;5.60;99.90;;;;;;4819029;29;20288;-61
2021/03/04 07:42:21;;;;;;;153.93;37.53;;;5.60;99.90;;;;;;4818797;29;20304;-61
2021/03/04 07:44:49;;;;;;;160.93;40.17;;;5.60;99.90;;;;;;4817755;29;20696;-61
2021/03/04 07:47:24;;;;;;;182.80;40.77;;;5.60;99.90;;;;;;4819398;29;20265;-61
2021/03/04 07:49:52;;;;;;;210.10;44.37;;;5.50;99.90;;;;;;4820026;29;20204;-60
2021/03/04 07:52:21;;;;;;;205.77;42.77;;;5.60;99.90;;;;;;4819811;29;20260;-61
2021/03/04 07:54:50;;;;;;;224.03;44.93;;;5.60;99.90;;;;;;4833578;29;20342;-60
2021/03/04 07:57:19;;;;;;;198.77;41.47;;;5.60;99.90;;;;;;4818162;29;20209;-61
2021/03/04 07:59:52;;;;;;;210.53;43.47;;;5.60;99.90;;;;;;4819629;29;20297;-60
2021/03/04 08:02:24;;;;;;;196.03;41.37;;;5.60;99.90;;;;;;4821221;29;20193;-61
2021/03/04 08:05:06;;;;;;;193.97;39.27;;;5.60;99.90;;;;;;4824157;29;20245;-60
2021/03/04 08:07:39;;;;;;;192.93;39.73;;;5.70;99.90;;;;;;4803517;29;20210;-61
2021/03/04 08:10:09;;;;;;;203.47;41.13;;;5.70;99.90;;;;;;4822880;29;20209;-60
2021/03/04 08:12:51;;;;;;;218.83;44.43;;;5.60;99.90;;;;;;4818946;29;20205;-60
2021/03/04 08:15:20;;;;;;;255.17;46.27;;;5.70;99.90;;;;;;4822374;29;20278;-61
2021/03/04 08:17:48;;;;;;;261.53;47.90;;;5.70;99.90;;;;;;4817478;29;20281;-60
2021/03/04 08:20:21;;;;;;;242.93;44.63;;;5.70;99.90;;;;;;4821193;29;20604;-61
2021/03/04 08:22:51;;;;;;;222.80;44.93;;;5.60;99.90;;;;;;4821641;29;20197;-61
2021/03/04 08:25:22;;;;;;;211.53;41.27;;;5.60;99.90;;;;;;4821008;29;20266;-61
2021/03/04 08:27:52;;;;;;;202.03;41.80;;;5.60;99.90;;;;;;4822703;29;20201;-61
2021/03/04 08:30:27;;;;;;;190.00;39.80;;;5.60;99.90;;;;;;4823819;29;20200;-61
2021/03/04 08:32:55;;;;;;;183.33;39.30;;;5.60;99.90;;;;;;4821277;29;20251;-61
2021/03/04 08:35:24;;;;;;;174.53;37.57;;;5.60;99.90;;;;;;4819276;29;20188;-61
2021/03/04 08:37:59;;;;;;;159.07;36.47;;;5.60;99.90;;;;;;4823361;29;20209;-60
2021/03/04 08:40:37;;;;;;;141.63;33.67;;;5.60;99.90;;;;;;4820168;29;20197;-61
2021/03/04 08:43:13;;;;;;;115.80;31.03;;;5.60;99.90;;;;;;4823574;29;20637;-60
2021/03/04 08:45:41;;;;;;;109.50;29.00;;;5.60;99.90;;;;;;4822554;29;20595;-60
2021/03/04 08:48:10;;;;;;;110.80;27.77;;;5.60;99.90;;;;;;4822614;29;20217;-61
2021/03/04 08:50:40;;;;;;;100.13;27.43;;;5.70;99.90;;;;;;4820299;29;20197;-60
2021/03/04 08:53:13;;;;;;;101.80;26.17;;;5.60;99.90;;;;;;4821904;29;20680;-61
2021/03/04 08:55:50;;;;;;;91.20;26.90;;;5.60;99.90;;;;;;4821583;29;20284;-61
2021/03/04 08:58:20;;;;;;;99.43;26.33;;;5.60;99.90;;;;;;4821610;29;20220;-60
2021/03/04 09:00:50;;;;;;;105.83;27.90;;;5.60;99.90;;;;;;4820521;29;20209;-61
2021/03/04 09:03:21;;;;;;;97.73;25.93;;;5.60;99.90;;;;;;4823047;29;20796;-61
2021/03/04 09:05:50;;;;;;;97.53;26.47;;;5.60;99.90;;;;;;4820139;29;20654;-60
2021/03/04 09:08:18;;;;;;;95.27;25.27;;;5.60;99.90;;;;;;4821147;29;20293;-61
2021/03/04 09:10:48;;;;;;;95.27;24.90;;;5.60;99.90;;;;;;4835027;29;20249;-61
2021/03/04 09:13:22;;;;;;;77.13;23.37;;;5.60;99.90;;;;;;4822216;29;20696;-60
2021/03/04 09:15:53;;;;;;;87.07;23.87;;;5.70;99.90;;;;;;4822148;29;20197;-61
2021/03/04 09:18:21;;;;;;;79.67;24.20;;;5.70;99.90;;;;;;4822542;29;20281;-61
2021/03/04 09:20:50;;;;;;;77.70;23.07;;;5.70;99.90;;;;;;4822427;29;20188;-60
2021/03/04 09:23:18;;;;;;;83.03;22.50;;;5.70;99.90;;;;;;4820551;29;20329;-61
2021/03/04 09:25:46;;;;;;;72.37;21.07;;;5.70;99.90;;;;;;4818947;29;20204;-61
2021/03/04 09:28:15;;;;;;;79.03;22.17;;;5.70;99.90;;;;;;4820250;29;20261;-61
2021/03/04 09:30:44;;;;;;;72.47;20.30;;;5.70;99.90;;;;;;4822438;29;20228;-61
2021/03/04 09:33:17;;;;;;;74.50;20.93;;;5.70;99.90;;;;;;4820264;29;20197;-61
2021/03/04 09:35:58;;;;;;;68.03;19.87;;;5.70;99.90;;;;;;4820298;29;20641;-60
2021/03/04 09:38:27;;;;;;;66.03;19.20;;;5.70;99.90;;;;;;4819867;29;20741;-60
2021/03/04 09:41:13;;;;;;;61.57;18.60;;;5.80;99.90;;;;;;4819830;29;20246;-60
2021/03/04 09:43:42;;;;;;;65.37;19.03;;;5.80;99.90;;;;;;4820718;29;20300;-60
2021/03/04 09:46:25;;;;;;;64.30;18.10;;;5.80;99.90;;;;;;4822564;29;20200;-60
2021/03/04 09:48:53;;;;;;;52.70;16.87;;;5.80;99.90;;;;;;4821586;29;20193;-60
2021/03/04 09:51:31;;;;;;;52.70;16.40;;;5.90;99.90;;;;;;4821197;29;20301;-60
2021/03/04 09:53:58;;;;;;;53.43;15.57;;;5.90;99.90;;;;;;4813406;29;20414;-61
2021/03/04 09:56:28;;;;;;;57.43;16.60;;;5.90;99.90;;;;;;4821053;29;20287;-60
2021/03/04 09:58:55;;;;;;;51.40;15.77;;;6.00;99.90;;;;;;4811394;29;20225;-61
2021/03/04 10:01:31;;;;;;;49.60;15.63;;;6.00;99.90;;;;;;4820165;29;20208;-61
2021/03/04 10:04:04;;;;;;;41.33;13.47;;;6.10;99.90;;;;;;4822678;29;20204;-61
2021/03/04 10:06:33;;;;;;;40.60;14.10;;;6.10;99.90;;;;;;4820321;29;20204;-61
2021/03/04 10:09:02;;;;;;;40.70;13.93;;;6.10;99.90;;;;;;4818779;29;20200;-61
2021/03/04 10:11:31;;;;;;;44.07;13.83;;;6.10;99.90;;;;;;4821483;29;20368;-60
2021/03/04 10:14:10;;;;;;;45.40;13.90;;;6.10;99.90;;;;;;4821161;29;20292;-61
2021/03/04 10:16:38;;;;;;;42.73;13.90;;;6.10;99.90;;;;;;4818787;29;20206;-60
2021/03/04 10:19:07;;;;;;;39.13;14.10;;;6.20;99.90;;;;;;4820392;29;20233;-61
2021/03/04 10:21:34;;;;;;;42.13;13.87;;;6.20;99.90;;;;;;4821583;29;20625;-61
2021/03/04 10:24:05;;;;;;;40.33;13.30;;;6.20;99.90;;;;;;4821097;29;20228;-61
2021/03/04 10:26:33;;;;;;;37.93;12.53;;;6.20;99.90;;;;;;4819055;29;20213;-61
2021/03/04 10:29:00;;;;;;;34.57;11.73;;;6.20;99.90;;;;;;4820172;29;20680;-60
2021/03/04 10:31:27;;;;;;;35.87;13.50;;;6.20;99.90;;;;;;4819586;29;20296;-61
2021/03/04 10:33:56;;;;;;;38.10;12.50;;;6.20;99.90;;;;;;4819648;29;20189;-61
2021/03/04 10:36:24;;;;;;;37.90;11.80;;;6.10;99.90;;;;;;4820507;29;20633;-61
2021/03/04 10:38:51;;;;;;;43.37;12.20;;;6.20;99.90;;;;;;4819403;29;20233;-61
2021/03/04 10:41:18;;;;;;;34.17;11.77;;;6.20;99.90;;;;;;4821538;29;20295;-61
2021/03/04 10:43:46;;;;;;;35.27;11.90;;;6.10;99.90;;;;;;4804882;29;20244;-61
2021/03/04 10:46:15;;;;;;;35.93;11.93;;;6.20;99.90;;;;;;4821217;29;20200;-61
2021/03/04 10:48:42;;;;;;;33.97;11.43;;;6.20;99.90;;;;;;4818538;29;20731;-61
2021/03/04 10:51:11;;;;;;;36.93;12.70;;;6.10;99.90;;;;;;4818371;29;20241;-61
2021/03/04 10:53:38;;;;;;;39.70;12.30;;;6.20;99.90;;;;;;4811968;29;20205;-61
2021/03/04 10:56:06;;;;;;;41.47;12.10;;;6.20;99.90;;;;;;4821636;29;20288;-61
2021/03/04 10:58:33;;;;;;;42.57;13.73;;;6.20;99.90;;;;;;4815582;29;20317;-60
2021/03/04 11:01:01;;;;;;;47.93;14.10;;;6.10;99.90;;;;;;4815336;29;20208;-61
2021/03/04 11:03:28;;;;;;;45.93;15.00;;;6.10;99.90;;;;;;4819585;29;20211;-61
2021/03/04 11:05:57;;;;;;;40.57;14.07;;;6.20;99.90;;;;;;4820102;29;20233;-61
2021/03/04 11:08:25;;;;;;;44.43;15.00;;;6.30;99.90;;;;;;4814635;29;20193;-61
2021/03/04 11:10:52;;;;;;;54.73;16.27;;;6.40;99.90;;;;;;4819640;29;20311;-61
2021/03/04 11:13:20;;;;;;;52.13;16.83;;;6.40;99.90;;;;;;4818139;29;20208;-61
2021/03/04 11:15:47;;;;;;;49.70;16.93;;;6.40;99.90;;;;;;4816480;29;20665;-61
2021/03/04 11:18:15;;;;;;;53.73;17.53;;;6.40;99.90;;;;;;4818740;29;20220;-61
2021/03/04 11:20:44;;;;;;;50.13;17.60;;;6.50;99.90;;;;;;4819526;29;20200;-61
2021/03/04 11:23:15;;;;;;;55.20;17.97;;;6.60;99.90;;;;;;4828693;29;20221;-61
2021/03/04 11:25:59;;;;;;;53.30;18.67;;;6.70;99.90;;;;;;4818947;29;20261;-61
2021/03/04 11:28:28;;;;;;;50.57;18.07;;;6.80;99.90;;;;;;4818815;29;20205;-61
2021/03/04 11:31:00;;;;;;;59.17;19.80;;;6.80;99.90;;;;;;4819152;29;20208;-61
2021/03/04 11:33:27;;;;;;;55.17;19.63;;;6.90;99.90;;;;;;4813267;29;20228;-61
2021/03/04 11:35:55;;;;;;;57.03;19.20;;;7.00;99.90;;;;;;4819272;29;20282;-61
2021/03/04 11:38:22;;;;;;;59.70;20.43;;;7.10;99.90;;;;;;4819728;29;20308;-61
2021/03/04 11:40:50;;;;;;;61.83;21.17;;;7.10;99.90;;;;;;4814473;29;20193;-61
2021/03/04 11:43:18;;;;;;;56.57;21.27;;;7.10;99.90;;;;;;4815756;29;20621;-61
2021/03/04 11:45:46;;;;;;;69.70;22.30;;;7.10;99.90;;;;;;4814778;29;20209;-61
2021/03/04 11:48:14;;;;;;;62.47;22.80;;;7.10;99.90;;;;;;4817185;29;20200;-61
2021/03/04 11:50:42;;;;;;;66.03;23.87;;;7.00;99.90;;;;;;4801884;29;20252;-61
2021/03/04 11:53:09;;;;;;;66.07;22.93;;;7.10;99.90;;;;;;4819791;29;20606;-61
2021/03/04 11:55:36;;;;;;;75.40;24.90;;;7.00;99.90;;;;;;4815190;29;20285;-61
2021/03/04 11:58:08;;;;;;;78.30;26.20;;;6.90;99.90;;;;;;4816015;29;20265;-61
2021/03/04 12:00:36;;;;;;;76.77;26.20;;;6.90;99.90;;;;;;4826467;29;20201;-61
2021/03/04 12:03:04;;;;;;;75.97;25.60;;;7.00;99.90;;;;;;4818619;29;20290;-61
2021/03/04 12:05:33;;;;;;;77.23;26.03;;;7.00;99.90;;;;;;4820256;29;20208;-61
2021/03/04 12:08:01;;;;;;;73.60;26.07;;;6.90;99.90;;;;;;4818565;29;20588;-61
2021/03/04 12:10:28;;;;;;;73.27;25.60;;;7.00;99.90;;;;;;4820749;29;20669;-61
2021/03/04 12:12:56;;;;;;;74.30;26.00;;;7.00;99.90;;;;;;4817838;29;20212;-61
2021/03/04 12:15:23;;;;;;;67.47;24.63;;;7.00;99.90;;;;;;4812416;29;20300;-61
2021/03/04 12:18:00;;;;;;;75.10;26.13;;;7.00;99.90;;;;;;4817149;29;20261;-61
2021/03/04 12:20:28;;;;;;;68.67;24.50;;;6.90;99.90;;;;;;4819596;29;20202;-61
2021/03/04 12:22:55;;;;;;;69.37;24.53;;;7.00;99.90;;;;;;4818078;29;20680;-61
2021/03/04 12:25:23;;;;;;;68.00;24.30;;;6.90;99.90;;;;;;4811139;29;20721;-62
2021/03/04 12:27:54;;;;;;;57.83;22.43;;;6.90;99.90;;;;;;4815961;29;20211;-61
2021/03/04 12:30:38;;;;;;;62.93;23.57;;;6.90;99.90;;;;;;4817168;29;20205;-61
2021/03/04 12:33:10;;;;;;;63.90;23.60;;;7.00;99.90;;;;;;4818495;29;20584;-61
2021/03/04 12:35:38;;;;;;;67.53;25.43;;;7.00;99.90;;;;;;4817553;29;20239;-61
2021/03/04 12:38:06;;;;;;;59.90;23.00;;;6.90;99.90;;;;;;4818059;29;20224;-61
2021/03/04 12:40:36;;;;;;;65.70;23.27;;;6.80;99.90;;;;;;4816485;29;20201;-62
2021/03/04 12:43:04;;;;;;;64.37;23.57;;;6.80;99.90;;;;;;4817819;29;20205;-61